sensor_id;sensor_type;location;lat;lon;timestamp;temperature;humidity
63047;DHT22;62025;39.238;9.126;2022-07-22T00:01:14;30.10;59.80
63047;DHT22;62025;39.238;9.126;2022-07-22T00:03:40;30.10;59.70
63047;DHT22;62025;39.238;9.126;2022-07-22T00:06:06;30.10;60.20
63047;DHT22;62025;39.238;9.126;2022-07-22T00:08:32;30.10;61.00
63047;DHT22;62025;39.238;9.126;2022-07-22T00:10:59;30.10;60.70
63047;DHT22;62025;39.238;9.126;2022-07-22T00:13:25;30.10;60.70
63047;DHT22;62025;39.238;9.126;2022-07-22T00:15:51;30.00;60.90
63047;DHT22;62025;39.238;9.126;2022-07-22T00:18:17;30.10;60.70
63047;DHT22;62025;39.238;9.126;2022-07-22T00:20:43;30.10;60.50
63047;DHT22;62025;39.238;9.126;2022-07-22T00:23:09;30.00;59.70
63047;DHT22;62025;39.238;9.126;2022-07-22T00:25:35;30.00;58.50
63047;DHT22;62025;39.238;9.126;2022-07-22T00:28:01;30.00;57.40
63047;DHT22;62025;39.238;9.126;2022-07-22T00:30:29;30.00;56.90
63047;DHT22;62025;39.238;9.126;2022-07-22T00:32:55;29.90;56.40
63047;DHT22;62025;39.238;9.126;2022-07-22T00:35:21;29.90;56.50
63047;DHT22;62025;39.238;9.126;2022-07-22T00:37:47;29.90;56.50
63047;DHT22;62025;39.238;9.126;2022-07-22T00:40:13;29.90;55.60
63047;DHT22;62025;39.238;9.126;2022-07-22T00:42:40;29.90;55.00
63047;DHT22;62025;39.238;9.126;2022-07-22T00:45:06;29.90;54.50
63047;DHT22;62025;39.238;9.126;2022-07-22T00:47:33;29.90;53.80
63047;DHT22;62025;39.238;9.126;2022-07-22T00:49:59;29.90;53.70
63047;DHT22;62025;39.238;9.126;2022-07-22T00:52:26;29.90;53.40
63047;DHT22;62025;39.238;9.126;2022-07-22T00:54:53;29.80;53.50
63047;DHT22;62025;39.238;9.126;2022-07-22T00:57:20;29.80;53.90
63047;DHT22;62025;39.238;9.126;2022-07-22T00:59:46;29.80;53.90
63047;DHT22;62025;39.238;9.126;2022-07-22T01:02:12;29.80;53.40
63047;DHT22;62025;39.238;9.126;2022-07-22T01:04:39;29.90;52.90
63047;DHT22;62025;39.238;9.126;2022-07-22T01:07:06;30.00;52.00
63047;DHT22;62025;39.238;9.126;2022-07-22T01:09:32;29.90;51.00
63047;DHT22;62025;39.238;9.126;2022-07-22T01:11:58;29.80;49.40
63047;DHT22;62025;39.238;9.126;2022-07-22T01:14:24;29.80;47.90
63047;DHT22;62025;39.238;9.126;2022-07-22T01:16:50;29.70;47.40
63047;DHT22;62025;39.238;9.126;2022-07-22T01:19:17;29.60;46.90
63047;DHT22;62025;39.238;9.126;2022-07-22T01:21:43;29.70;46.80
63047;DHT22;62025;39.238;9.126;2022-07-22T01:24:09;29.60;47.30
63047;DHT22;62025;39.238;9.126;2022-07-22T01:26:35;29.80;47.80
63047;DHT22;62025;39.238;9.126;2022-07-22T01:29:02;29.90;48.30
63047;DHT22;62025;39.238;9.126;2022-07-22T01:31:29;29.90;48.20
63047;DHT22;62025;39.238;9.126;2022-07-22T01:33:57;29.80;48.50
63047;DHT22;62025;39.238;9.126;2022-07-22T01:36:23;29.80;48.10
63047;DHT22;62025;39.238;9.126;2022-07-22T01:38:50;29.70;47.90
63047;DHT22;62025;39.238;9.126;2022-07-22T01:41:17;29.70;48.10
63047;DHT22;62025;39.238;9.126;2022-07-22T01:43:43;29.70;48.60
63047;DHT22;62025;39.238;9.126;2022-07-22T01:46:10;29.60;50.00
63047;DHT22;62025;39.238;9.126;2022-07-22T01:48:40;29.60;51.00
63047;DHT22;62025;39.238;9.126;2022-07-22T01:51:06;29.60;51.80
63047;DHT22;62025;39.238;9.126;2022-07-22T01:53:32;29.60;52.20
63047;DHT22;62025;39.238;9.126;2022-07-22T01:55:59;29.50;53.20
63047;DHT22;62025;39.238;9.126;2022-07-22T01:58:26;29.40;53.80
63047;DHT22;62025;39.238;9.126;2022-07-22T02:00:55;29.50;54.30
63047;DHT22;62025;39.238;9.126;2022-07-22T02:03:22;29.50;55.50
63047;DHT22;62025;39.238;9.126;2022-07-22T02:05:48;29.50;56.60
63047;DHT22;62025;39.238;9.126;2022-07-22T02:08:23;29.50;57.80
63047;DHT22;62025;39.238;9.126;2022-07-22T02:11:21;29.40;58.50
63047;DHT22;62025;39.238;9.126;2022-07-22T02:13:52;29.40;58.30
63047;DHT22;62025;39.238;9.126;2022-07-22T02:16:19;29.40;58.30
63047;DHT22;62025;39.238;9.126;2022-07-22T02:18:46;29.50;57.40
63047;DHT22;62025;39.238;9.126;2022-07-22T02:21:13;29.60;57.30
63047;DHT22;62025;39.238;9.126;2022-07-22T02:23:39;29.40;57.50
63047;DHT22;62025;39.238;9.126;2022-07-22T02:26:05;29.40;57.50
63047;DHT22;62025;39.238;9.126;2022-07-22T02:28:31;29.30;57.50
63047;DHT22;62025;39.238;9.126;2022-07-22T02:30:58;29.30;57.20
63047;DHT22;62025;39.238;9.126;2022-07-22T02:33:24;29.40;56.60
63047;DHT22;62025;39.238;9.126;2022-07-22T02:35:50;29.40;56.10
63047;DHT22;62025;39.238;9.126;2022-07-22T02:38:16;29.50;55.80
63047;DHT22;62025;39.238;9.126;2022-07-22T02:40:43;29.40;55.90
63047;DHT22;62025;39.238;9.126;2022-07-22T02:43:11;29.20;56.10
63047;DHT22;62025;39.238;9.126;2022-07-22T02:45:38;29.20;56.50
63047;DHT22;62025;39.238;9.126;2022-07-22T02:48:04;29.10;56.70
63047;DHT22;62025;39.238;9.126;2022-07-22T02:50:32;29.30;56.20
63047;DHT22;62025;39.238;9.126;2022-07-22T02:52:58;29.10;56.60
63047;DHT22;62025;39.238;9.126;2022-07-22T02:55:28;29.30;56.00
63047;DHT22;62025;39.238;9.126;2022-07-22T02:57:57;29.30;56.00
63047;DHT22;62025;39.238;9.126;2022-07-22T03:00:23;29.40;55.60
63047;DHT22;62025;39.238;9.126;2022-07-22T03:02:51;29.50;55.20
63047;DHT22;62025;39.238;9.126;2022-07-22T03:05:17;29.40;55.70
63047;DHT22;62025;39.238;9.126;2022-07-22T03:07:50;29.40;55.50
63047;DHT22;62025;39.238;9.126;2022-07-22T03:10:16;29.50;55.00
63047;DHT22;62025;39.238;9.126;2022-07-22T03:12:42;29.60;55.10
63047;DHT22;62025;39.238;9.126;2022-07-22T03:15:09;29.60;55.30
63047;DHT22;62025;39.238;9.126;2022-07-22T03:17:37;29.60;56.00
63047;DHT22;62025;39.238;9.126;2022-07-22T03:20:07;29.40;57.10
63047;DHT22;62025;39.238;9.126;2022-07-22T03:22:34;29.30;57.30
63047;DHT22;62025;39.238;9.126;2022-07-22T03:25:01;29.20;58.30
63047;DHT22;62025;39.238;9.126;2022-07-22T03:27:27;29.20;58.40
63047;DHT22;62025;39.238;9.126;2022-07-22T03:29:54;29.20;58.60
63047;DHT22;62025;39.238;9.126;2022-07-22T03:32:20;29.10;58.50
63047;DHT22;62025;39.238;9.126;2022-07-22T03:34:47;29.30;58.20
63047;DHT22;62025;39.238;9.126;2022-07-22T03:37:13;29.40;58.00
63047;DHT22;62025;39.238;9.126;2022-07-22T03:39:42;29.10;59.00
63047;DHT22;62025;39.238;9.126;2022-07-22T03:42:10;29.10;58.90
63047;DHT22;62025;39.238;9.126;2022-07-22T03:44:43;29.00;59.70
63047;DHT22;62025;39.238;9.126;2022-07-22T03:47:10;29.00;59.70
63047;DHT22;62025;39.238;9.126;2022-07-22T03:49:36;29.30;58.60
63047;DHT22;62025;39.238;9.126;2022-07-22T03:52:04;29.20;59.00
63047;DHT22;62025;39.238;9.126;2022-07-22T03:54:30;29.20;58.80
63047;DHT22;62025;39.238;9.126;2022-07-22T03:56:56;29.40;58.20
63047;DHT22;62025;39.238;9.126;2022-07-22T03:59:22;29.40;58.20
63047;DHT22;62025;39.238;9.126;2022-07-22T04:01:48;29.40;57.80
63047;DHT22;62025;39.238;9.126;2022-07-22T04:04:14;29.40;57.60
63047;DHT22;62025;39.238;9.126;2022-07-22T04:06:43;29.40;57.90
63047;DHT22;62025;39.238;9.126;2022-07-22T04:09:20;29.40;57.90
63047;DHT22;62025;39.238;9.126;2022-07-22T04:11:46;29.50;57.60
63047;DHT22;62025;39.238;9.126;2022-07-22T04:14:13;29.40;57.60
63047;DHT22;62025;39.238;9.126;2022-07-22T04:16:39;29.40;57.60
63047;DHT22;62025;39.238;9.126;2022-07-22T04:19:09;29.40;57.40
63047;DHT22;62025;39.238;9.126;2022-07-22T04:21:51;29.20;57.50
63047;DHT22;62025;39.238;9.126;2022-07-22T04:24:20;29.40;57.10
63047;DHT22;62025;39.238;9.126;2022-07-22T04:26:46;29.40;56.70
63047;DHT22;62025;39.238;9.126;2022-07-22T04:29:12;29.40;56.80
63047;DHT22;62025;39.238;9.126;2022-07-22T04:31:39;29.40;56.60
63047;DHT22;62025;39.238;9.126;2022-07-22T04:34:17;29.30;56.40
63047;DHT22;62025;39.238;9.126;2022-07-22T04:36:46;29.40;56.20
63047;DHT22;62025;39.238;9.126;2022-07-22T04:39:12;29.40;56.00
63047;DHT22;62025;39.238;9.126;2022-07-22T04:41:45;29.40;56.30
63047;DHT22;62025;39.238;9.126;2022-07-22T04:44:14;29.40;56.30
63047;DHT22;62025;39.238;9.126;2022-07-22T04:46:41;29.40;56.10
63047;DHT22;62025;39.238;9.126;2022-07-22T04:49:07;29.40;55.90
63047;DHT22;62025;39.238;9.126;2022-07-22T04:51:33;29.40;56.10
63047;DHT22;62025;39.238;9.126;2022-07-22T04:54:04;29.40;56.20
63047;DHT22;62025;39.238;9.126;2022-07-22T04:56:38;29.40;56.10
63047;DHT22;62025;39.238;9.126;2022-07-22T04:59:05;29.40;56.20
63047;DHT22;62025;39.238;9.126;2022-07-22T05:01:31;29.40;56.30
63047;DHT22;62025;39.238;9.126;2022-07-22T05:04:00;29.40;56.60
63047;DHT22;62025;39.238;9.126;2022-07-22T05:06:26;29.40;56.80
63047;DHT22;62025;39.238;9.126;2022-07-22T05:08:53;29.40;57.10
63047;DHT22;62025;39.238;9.126;2022-07-22T05:11:21;29.30;57.40
63047;DHT22;62025;39.238;9.126;2022-07-22T05:13:48;29.40;57.20
63047;DHT22;62025;39.238;9.126;2022-07-22T05:16:14;29.40;57.10
63047;DHT22;62025;39.238;9.126;2022-07-22T05:18:40;29.40;57.60
63047;DHT22;62025;39.238;9.126;2022-07-22T05:21:09;29.40;58.00
63047;DHT22;62025;39.238;9.126;2022-07-22T05:23:35;29.30;58.40
63047;DHT22;62025;39.238;9.126;2022-07-22T05:26:04;29.40;58.40
63047;DHT22;62025;39.238;9.126;2022-07-22T05:28:30;29.40;58.20
63047;DHT22;62025;39.238;9.126;2022-07-22T05:30:57;29.40;58.30
63047;DHT22;62025;39.238;9.126;2022-07-22T05:33:25;29.40;58.00
63047;DHT22;62025;39.238;9.126;2022-07-22T05:36:12;29.40;57.50
63047;DHT22;62025;39.238;9.126;2022-07-22T05:38:46;29.40;56.50
63047;DHT22;62025;39.238;9.126;2022-07-22T05:41:12;29.40;55.90
63047;DHT22;62025;39.238;9.126;2022-07-22T05:43:38;29.40;55.80
63047;DHT22;62025;39.238;9.126;2022-07-22T05:46:05;29.30;55.60
63047;DHT22;62025;39.238;9.126;2022-07-22T05:48:33;29.40;55.30
63047;DHT22;62025;39.238;9.126;2022-07-22T05:50:59;29.40;55.00
63047;DHT22;62025;39.238;9.126;2022-07-22T05:53:26;29.40;54.90
63047;DHT22;62025;39.238;9.126;2022-07-22T05:55:52;29.40;54.80
63047;DHT22;62025;39.238;9.126;2022-07-22T05:58:18;29.40;54.30
63047;DHT22;62025;39.238;9.126;2022-07-22T06:00:44;29.50;53.70
63047;DHT22;62025;39.238;9.126;2022-07-22T06:03:11;29.60;53.40
63047;DHT22;62025;39.238;9.126;2022-07-22T06:05:37;29.50;52.60
63047;DHT22;62025;39.238;9.126;2022-07-22T06:08:07;29.50;52.30
63047;DHT22;62025;39.238;9.126;2022-07-22T06:10:40;29.60;52.20
63047;DHT22;62025;39.238;9.126;2022-07-22T06:13:06;29.60;52.30
63047;DHT22;62025;39.238;9.126;2022-07-22T06:15:32;29.70;52.30
63047;DHT22;62025;39.238;9.126;2022-07-22T06:18:00;29.80;52.10
63047;DHT22;62025;39.238;9.126;2022-07-22T06:20:26;29.80;51.90
63047;DHT22;62025;39.238;9.126;2022-07-22T06:22:52;29.90;52.00
63047;DHT22;62025;39.238;9.126;2022-07-22T06:25:19;30.10;50.70
63047;DHT22;62025;39.238;9.126;2022-07-22T06:27:45;30.30;49.70
63047;DHT22;62025;39.238;9.126;2022-07-22T06:30:12;30.40;48.70
63047;DHT22;62025;39.238;9.126;2022-07-22T06:32:38;30.40;48.90
63047;DHT22;62025;39.238;9.126;2022-07-22T06:35:05;30.50;47.50
63047;DHT22;62025;39.238;9.126;2022-07-22T06:37:32;30.60;45.50
63047;DHT22;62025;39.238;9.126;2022-07-22T06:39:58;30.60;44.60
63047;DHT22;62025;39.238;9.126;2022-07-22T06:42:39;30.60;44.50
63047;DHT22;62025;39.238;9.126;2022-07-22T06:45:09;30.70;44.60
63047;DHT22;62025;39.238;9.126;2022-07-22T06:47:54;30.80;44.20
63047;DHT22;62025;39.238;9.126;2022-07-22T06:50:22;30.80;44.20
63047;DHT22;62025;39.238;9.126;2022-07-22T06:52:50;30.90;43.90
63047;DHT22;62025;39.238;9.126;2022-07-22T06:55:17;30.90;44.00
63047;DHT22;62025;39.238;9.126;2022-07-22T06:57:52;31.00;43.50
63047;DHT22;62025;39.238;9.126;2022-07-22T07:00:18;31.30;42.80
63047;DHT22;62025;39.238;9.126;2022-07-22T07:03:03;31.50;42.20
63047;DHT22;62025;39.238;9.126;2022-07-22T07:05:29;31.50;41.60
63047;DHT22;62025;39.238;9.126;2022-07-22T07:07:56;31.60;41.10
63047;DHT22;62025;39.238;9.126;2022-07-22T07:10:22;31.60;41.20
63047;DHT22;62025;39.238;9.126;2022-07-22T07:12:58;31.70;41.20
63047;DHT22;62025;39.238;9.126;2022-07-22T07:15:40;31.70;41.30
63047;DHT22;62025;39.238;9.126;2022-07-22T07:18:08;31.80;41.40
63047;DHT22;62025;39.238;9.126;2022-07-22T07:20:35;31.90;41.50
63047;DHT22;62025;39.238;9.126;2022-07-22T07:23:04;31.90;41.20
63047;DHT22;62025;39.238;9.126;2022-07-22T07:25:34;32.00;41.10
63047;DHT22;62025;39.238;9.126;2022-07-22T07:28:00;32.10;41.20
63047;DHT22;62025;39.238;9.126;2022-07-22T07:30:47;32.30;41.00
63047;DHT22;62025;39.238;9.126;2022-07-22T07:33:13;32.40;41.00
63047;DHT22;62025;39.238;9.126;2022-07-22T07:35:39;32.40;41.00
63047;DHT22;62025;39.238;9.126;2022-07-22T07:38:06;32.50;40.50
63047;DHT22;62025;39.238;9.126;2022-07-22T07:40:33;32.50;39.90
63047;DHT22;62025;39.238;9.126;2022-07-22T07:43:00;32.70;39.80
63047;DHT22;62025;39.238;9.126;2022-07-22T07:45:27;33.00;39.30
63047;DHT22;62025;39.238;9.126;2022-07-22T07:47:53;32.90;38.80
63047;DHT22;62025;39.238;9.126;2022-07-22T07:50:19;33.00;38.70
63047;DHT22;62025;39.238;9.126;2022-07-22T07:52:46;32.80;39.20
63047;DHT22;62025;39.238;9.126;2022-07-22T07:55:14;32.90;38.50
63047;DHT22;62025;39.238;9.126;2022-07-22T07:57:43;32.90;38.70
63047;DHT22;62025;39.238;9.126;2022-07-22T08:00:15;33.20;38.30
63047;DHT22;62025;39.238;9.126;2022-07-22T08:02:46;33.30;38.50
63047;DHT22;62025;39.238;9.126;2022-07-22T08:05:12;33.50;38.10
63047;DHT22;62025;39.238;9.126;2022-07-22T08:07:39;33.20;37.60
63047;DHT22;62025;39.238;9.126;2022-07-22T08:10:07;33.20;37.30
63047;DHT22;62025;39.238;9.126;2022-07-22T08:12:52;33.10;36.30
63047;DHT22;62025;39.238;9.126;2022-07-22T08:15:50;32.90;36.60
63047;DHT22;62025;39.238;9.126;2022-07-22T08:18:20;33.10;35.80
63047;DHT22;62025;39.238;9.126;2022-07-22T08:20:47;33.10;36.10
63047;DHT22;62025;39.238;9.126;2022-07-22T08:23:13;33.40;35.90
63047;DHT22;62025;39.238;9.126;2022-07-22T08:25:42;33.50;35.40
63047;DHT22;62025;39.238;9.126;2022-07-22T08:28:10;34.00;34.70
63047;DHT22;62025;39.238;9.126;2022-07-22T08:30:36;34.00;34.60
63047;DHT22;62025;39.238;9.126;2022-07-22T08:33:02;33.60;35.00
63047;DHT22;62025;39.238;9.126;2022-07-22T08:35:28;33.40;34.80
63047;DHT22;62025;39.238;9.126;2022-07-22T08:37:55;33.10;34.70
63047;DHT22;62025;39.238;9.126;2022-07-22T08:40:22;33.30;34.90
63047;DHT22;62025;39.238;9.126;2022-07-22T08:42:49;33.60;34.40
63047;DHT22;62025;39.238;9.126;2022-07-22T08:45:18;33.40;35.30
63047;DHT22;62025;39.238;9.126;2022-07-22T08:47:48;33.90;34.50
63047;DHT22;62025;39.238;9.126;2022-07-22T08:50:21;33.70;35.00
63047;DHT22;62025;39.238;9.126;2022-07-22T08:53:00;33.70;35.40
63047;DHT22;62025;39.238;9.126;2022-07-22T08:55:27;33.80;35.20
63047;DHT22;62025;39.238;9.126;2022-07-22T08:57:53;33.90;35.10
63047;DHT22;62025;39.238;9.126;2022-07-22T09:00:21;33.90;36.80
63047;DHT22;62025;39.238;9.126;2022-07-22T09:02:49;33.90;38.00
63047;DHT22;62025;39.238;9.126;2022-07-22T09:05:17;33.90;38.00
63047;DHT22;62025;39.238;9.126;2022-07-22T09:07:45;33.60;38.40
63047;DHT22;62025;39.238;9.126;2022-07-22T09:10:20;33.90;38.00
63047;DHT22;62025;39.238;9.126;2022-07-22T09:13:15;33.50;38.50
63047;DHT22;62025;39.238;9.126;2022-07-22T09:16:05;33.60;38.70
63047;DHT22;62025;39.238;9.126;2022-07-22T09:19:10;33.40;38.60
63047;DHT22;62025;39.238;9.126;2022-07-22T09:22:02;33.50;38.30
63047;DHT22;62025;39.238;9.126;2022-07-22T09:24:50;33.50;38.10
63047;DHT22;62025;39.238;9.126;2022-07-22T09:27:31;33.80;38.40
63047;DHT22;62025;39.238;9.126;2022-07-22T09:30:24;33.80;38.60
63047;DHT22;62025;39.238;9.126;2022-07-22T09:33:06;33.80;37.80
63047;DHT22;62025;39.238;9.126;2022-07-22T09:35:40;33.70;38.00
63047;DHT22;62025;39.238;9.126;2022-07-22T09:38:12;33.70;37.80
63047;DHT22;62025;39.238;9.126;2022-07-22T09:40:41;34.00;38.10
63047;DHT22;62025;39.238;9.126;2022-07-22T09:43:17;33.90;38.50
63047;DHT22;62025;39.238;9.126;2022-07-22T09:45:52;33.70;39.10
63047;DHT22;62025;39.238;9.126;2022-07-22T09:48:32;33.70;39.70
63047;DHT22;62025;39.238;9.126;2022-07-22T09:51:11;33.40;41.40
63047;DHT22;62025;39.238;9.126;2022-07-22T09:54:15;33.70;41.90
63047;DHT22;62025;39.238;9.126;2022-07-22T09:56:43;33.90;41.20
63047;DHT22;62025;39.238;9.126;2022-07-22T09:59:12;33.60;41.50
63047;DHT22;62025;39.238;9.126;2022-07-22T10:01:51;33.40;41.60
63047;DHT22;62025;39.238;9.126;2022-07-22T10:04:20;33.50;41.90
63047;DHT22;62025;39.238;9.126;2022-07-22T10:06:50;33.50;41.30
63047;DHT22;62025;39.238;9.126;2022-07-22T10:09:20;33.30;42.30
63047;DHT22;62025;39.238;9.126;2022-07-22T10:11:48;33.10;44.20
63047;DHT22;62025;39.238;9.126;2022-07-22T10:14:18;33.30;46.00
63047;DHT22;62025;39.238;9.126;2022-07-22T10:16:46;33.50;46.00
63047;DHT22;62025;39.238;9.126;2022-07-22T10:19:13;33.70;43.30
63047;DHT22;62025;39.238;9.126;2022-07-22T10:21:39;33.50;42.80
63047;DHT22;62025;39.238;9.126;2022-07-22T10:26:56;33.40;43.30
63047;DHT22;62025;39.238;9.126;2022-07-22T10:29:41;33.40;43.90
63047;DHT22;62025;39.238;9.126;2022-07-22T10:37:36;33.50;41.40
63047;DHT22;62025;39.238;9.126;2022-07-22T10:53:23;33.00;43.20
63047;DHT22;62025;39.238;9.126;2022-07-22T10:56:02;33.00;45.10
63047;DHT22;62025;39.238;9.126;2022-07-22T11:01:19;33.10;44.00
63047;DHT22;62025;39.238;9.126;2022-07-22T11:03:48;33.30;42.40
63047;DHT22;62025;39.238;9.126;2022-07-22T11:08:49;33.00;46.50
63047;DHT22;62025;39.238;9.126;2022-07-22T11:11:17;33.10;41.70
63047;DHT22;62025;39.238;9.126;2022-07-22T11:13:45;33.10;43.20
63047;DHT22;62025;39.238;9.126;2022-07-22T11:16:23;33.20;42.00
63047;DHT22;62025;39.238;9.126;2022-07-22T11:18:52;33.00;41.60
63047;DHT22;62025;39.238;9.126;2022-07-22T11:21:28;33.00;40.30
63047;DHT22;62025;39.238;9.126;2022-07-22T11:23:58;33.00;44.80
63047;DHT22;62025;39.238;9.126;2022-07-22T11:29:05;32.90;46.60
63047;DHT22;62025;39.238;9.126;2022-07-22T11:31:33;33.30;49.00
63047;DHT22;62025;39.238;9.126;2022-07-22T11:34:11;33.40;51.00
63047;DHT22;62025;39.238;9.126;2022-07-22T11:36:42;33.40;48.70
63047;DHT22;62025;39.238;9.126;2022-07-22T11:39:11;33.50;47.80
63047;DHT22;62025;39.238;9.126;2022-07-22T11:41:39;33.30;49.30
63047;DHT22;62025;39.238;9.126;2022-07-22T11:44:06;33.40;48.50
63047;DHT22;62025;39.238;9.126;2022-07-22T11:46:40;33.20;50.50
63047;DHT22;62025;39.238;9.126;2022-07-22T11:49:08;33.00;50.60
63047;DHT22;62025;39.238;9.126;2022-07-22T11:51:37;33.30;49.80
63047;DHT22;62025;39.238;9.126;2022-07-22T11:54:05;33.30;50.10
63047;DHT22;62025;39.238;9.126;2022-07-22T11:56:32;33.50;49.90
63047;DHT22;62025;39.238;9.126;2022-07-22T11:58:59;33.40;47.70
63047;DHT22;62025;39.238;9.126;2022-07-22T12:01:35;33.40;51.20
63047;DHT22;62025;39.238;9.126;2022-07-22T12:04:03;33.20;51.20
63047;DHT22;62025;39.238;9.126;2022-07-22T12:06:35;33.20;51.00
63047;DHT22;62025;39.238;9.126;2022-07-22T12:09:09;33.40;48.70
63047;DHT22;62025;39.238;9.126;2022-07-22T12:11:41;33.30;49.20
63047;DHT22;62025;39.238;9.126;2022-07-22T12:14:23;33.60;49.60
63047;DHT22;62025;39.238;9.126;2022-07-22T12:17:05;33.70;49.40
63047;DHT22;62025;39.238;9.126;2022-07-22T12:19:34;33.20;47.60
63047;DHT22;62025;39.238;9.126;2022-07-22T12:22:10;33.20;46.70
63047;DHT22;62025;39.238;9.126;2022-07-22T12:24:42;33.40;46.60
63047;DHT22;62025;39.238;9.126;2022-07-22T12:27:16;33.20;46.60
63047;DHT22;62025;39.238;9.126;2022-07-22T12:29:45;33.30;45.10
63047;DHT22;62025;39.238;9.126;2022-07-22T12:34:56;33.30;44.50
63047;DHT22;62025;39.238;9.126;2022-07-22T12:37:33;33.20;44.60
63047;DHT22;62025;39.238;9.126;2022-07-22T12:40:09;33.20;43.00
63047;DHT22;62025;39.238;9.126;2022-07-22T12:42:42;33.20;40.10
63047;DHT22;62025;39.238;9.126;2022-07-22T12:45:15;33.20;42.20
63047;DHT22;62025;39.238;9.126;2022-07-22T12:50:26;33.30;42.40
63047;DHT22;62025;39.238;9.126;2022-07-22T12:55:33;33.20;44.00
63047;DHT22;62025;39.238;9.126;2022-07-22T12:58:05;33.40;45.10
63047;DHT22;62025;39.238;9.126;2022-07-22T13:00:34;33.60;44.50
63047;DHT22;62025;39.238;9.126;2022-07-22T13:03:03;33.60;42.90
63047;DHT22;62025;39.238;9.126;2022-07-22T13:05:30;33.80;42.20
63047;DHT22;62025;39.238;9.126;2022-07-22T13:07:58;33.80;42.70
63047;DHT22;62025;39.238;9.126;2022-07-22T13:10:26;34.00;42.30
63047;DHT22;62025;39.238;9.126;2022-07-22T13:12:54;33.80;41.50
63047;DHT22;62025;39.238;9.126;2022-07-22T13:15:22;33.80;41.10
63047;DHT22;62025;39.238;9.126;2022-07-22T13:17:50;33.60;42.40
63047;DHT22;62025;39.238;9.126;2022-07-22T13:20:18;33.60;42.30
63047;DHT22;62025;39.238;9.126;2022-07-22T13:22:45;33.70;41.40
63047;DHT22;62025;39.238;9.126;2022-07-22T13:25:12;33.50;42.60
63047;DHT22;62025;39.238;9.126;2022-07-22T13:27:39;33.60;42.20
63047;DHT22;62025;39.238;9.126;2022-07-22T13:30:07;33.50;42.60
63047;DHT22;62025;39.238;9.126;2022-07-22T13:32:34;33.60;40.30
63047;DHT22;62025;39.238;9.126;2022-07-22T13:35:02;33.40;42.00
63047;DHT22;62025;39.238;9.126;2022-07-22T13:37:29;33.50;43.60
63047;DHT22;62025;39.238;9.126;2022-07-22T13:39:55;33.50;42.40
63047;DHT22;62025;39.238;9.126;2022-07-22T13:42:22;33.20;44.80
63047;DHT22;62025;39.238;9.126;2022-07-22T13:44:50;33.40;44.90
63047;DHT22;62025;39.238;9.126;2022-07-22T13:47:17;33.40;45.40
63047;DHT22;62025;39.238;9.126;2022-07-22T13:49:44;33.70;44.00
63047;DHT22;62025;39.238;9.126;2022-07-22T13:52:13;33.30;43.40
63047;DHT22;62025;39.238;9.126;2022-07-22T13:54:40;33.30;43.20
63047;DHT22;62025;39.238;9.126;2022-07-22T13:57:07;33.20;43.10
63047;DHT22;62025;39.238;9.126;2022-07-22T13:59:36;33.30;45.10
63047;DHT22;62025;39.238;9.126;2022-07-22T14:02:04;33.50;43.10
63047;DHT22;62025;39.238;9.126;2022-07-22T14:04:31;33.50;43.50
63047;DHT22;62025;39.238;9.126;2022-07-22T14:06:58;33.50;43.70
63047;DHT22;62025;39.238;9.126;2022-07-22T14:09:25;33.60;42.70
63047;DHT22;62025;39.238;9.126;2022-07-22T14:11:52;33.10;42.40
63047;DHT22;62025;39.238;9.126;2022-07-22T14:14:19;33.30;42.10
63047;DHT22;62025;39.238;9.126;2022-07-22T14:16:45;33.10;43.40
63047;DHT22;62025;39.238;9.126;2022-07-22T14:19:14;33.10;43.80
63047;DHT22;62025;39.238;9.126;2022-07-22T14:21:45;33.10;44.10
63047;DHT22;62025;39.238;9.126;2022-07-22T14:24:12;32.90;46.80
63047;DHT22;62025;39.238;9.126;2022-07-22T14:26:39;32.80;46.20
63047;DHT22;62025;39.238;9.126;2022-07-22T14:29:08;32.80;47.80
63047;DHT22;62025;39.238;9.126;2022-07-22T14:31:35;32.80;47.10
63047;DHT22;62025;39.238;9.126;2022-07-22T14:34:02;32.90;46.90
63047;DHT22;62025;39.238;9.126;2022-07-22T14:36:29;33.20;46.30
63047;DHT22;62025;39.238;9.126;2022-07-22T14:38:56;33.00;43.30
63047;DHT22;62025;39.238;9.126;2022-07-22T14:41:23;33.00;41.80
63047;DHT22;62025;39.238;9.126;2022-07-22T14:43:50;33.00;40.50
63047;DHT22;62025;39.238;9.126;2022-07-22T14:46:17;33.00;39.20
63047;DHT22;62025;39.238;9.126;2022-07-22T14:48:43;33.00;39.20
63047;DHT22;62025;39.238;9.126;2022-07-22T14:51:11;33.10;39.40
63047;DHT22;62025;39.238;9.126;2022-07-22T14:53:38;33.00;38.90
63047;DHT22;62025;39.238;9.126;2022-07-22T14:56:05;32.90;39.80
63047;DHT22;62025;39.238;9.126;2022-07-22T14:58:32;33.00;39.70
63047;DHT22;62025;39.238;9.126;2022-07-22T15:01:00;33.00;40.30
63047;DHT22;62025;39.238;9.126;2022-07-22T15:03:27;33.40;39.80
63047;DHT22;62025;39.238;9.126;2022-07-22T15:05:54;33.80;39.20
63047;DHT22;62025;39.238;9.126;2022-07-22T15:08:21;33.70;38.90
63047;DHT22;62025;39.238;9.126;2022-07-22T15:10:48;33.50;38.70
63047;DHT22;62025;39.238;9.126;2022-07-22T15:13:15;33.40;39.10
63047;DHT22;62025;39.238;9.126;2022-07-22T15:15:42;33.30;38.60
63047;DHT22;62025;39.238;9.126;2022-07-22T15:18:09;33.20;36.40
63047;DHT22;62025;39.238;9.126;2022-07-22T15:20:36;33.30;36.20
63047;DHT22;62025;39.238;9.126;2022-07-22T15:23:04;33.20;35.10
63047;DHT22;62025;39.238;9.126;2022-07-22T15:25:31;33.20;35.00
63047;DHT22;62025;39.238;9.126;2022-07-22T15:27:58;33.50;36.00
63047;DHT22;62025;39.238;9.126;2022-07-22T15:30:26;33.40;35.30
63047;DHT22;62025;39.238;9.126;2022-07-22T15:32:53;33.40;37.80
63047;DHT22;62025;39.238;9.126;2022-07-22T15:35:20;33.30;38.90
63047;DHT22;62025;39.238;9.126;2022-07-22T15:37:47;33.20;39.20
63047;DHT22;62025;39.238;9.126;2022-07-22T15:40:14;33.10;37.00
63047;DHT22;62025;39.238;9.126;2022-07-22T15:42:42;33.30;37.00
63047;DHT22;62025;39.238;9.126;2022-07-22T15:45:08;33.20;36.80
63047;DHT22;62025;39.238;9.126;2022-07-22T15:47:35;33.40;37.10
63047;DHT22;62025;39.238;9.126;2022-07-22T15:50:02;33.30;44.50
63047;DHT22;62025;39.238;9.126;2022-07-22T15:52:29;33.10;47.70
63047;DHT22;62025;39.238;9.126;2022-07-22T15:54:55;33.10;43.20
63047;DHT22;62025;39.238;9.126;2022-07-22T15:57:21;33.00;40.30
63047;DHT22;62025;39.238;9.126;2022-07-22T16:00:07;33.10;43.90
63047;DHT22;62025;39.238;9.126;2022-07-22T16:02:39;33.10;45.10
63047;DHT22;62025;39.238;9.126;2022-07-22T16:05:06;33.00;49.70
63047;DHT22;62025;39.238;9.126;2022-07-22T16:07:32;32.90;49.90
63047;DHT22;62025;39.238;9.126;2022-07-22T16:09:58;33.00;47.20
63047;DHT22;62025;39.238;9.126;2022-07-22T16:12:24;33.00;48.40
63047;DHT22;62025;39.238;9.126;2022-07-22T16:14:50;32.90;50.30
63047;DHT22;62025;39.238;9.126;2022-07-22T16:17:16;32.60;51.50
63047;DHT22;62025;39.238;9.126;2022-07-22T16:19:42;32.60;53.20